Latest Weather Observations for Ngayawili (Elcho Island)

IDD60801

Issued at 7:35 pm CST Tuesday 30 September 2014 (issued every 30 minutes, with the page automatically refreshed every 10 minutes)

About weather observations | Map of weather stations | Latest weather observations for NT | Other Formats
Station Details ID: 014517 Name: NGAYAWILI Lat: -12.00 Lon: 135.57 Height: 8.1 m
Data from the previous 72 hours. | See also: Recent months at Ngayawili (Elcho Island)
Date/Time
CST
Temp
°C
App
Temp
°C
Dew
Point
Rel
Hum
%
Delta-T
°C
Wind Press
QNH
hPa
Press
MSL
hPa
Rain
since 9 am
mm
Dir
 
Spd
km/h
Gust
km/h
Spd
kts
Gust
kts
30/07:30pm 25.8 27.0 19.9 70 3.8 ENE 13 26 7 14 1012.5 1012.4 0.0
30/07:00pm 25.8 27.7 19.7 69 3.9 ENE 9 13 5 7 1012.2 1012.1 0.0
30/06:30pm 26.4 26.9 19.3 65 4.6 ENE 15 22 8 12 1012.0 1011.9 0.0
30/06:00pm 27.3 28.1 19.1 61 5.3 E 13 20 7 11 1011.6 1011.5 0.0
30/05:30pm 28.1 28.8 19.6 60 5.5 ENE 15 24 8 13 1011.2 1011.1 0.0
30/05:00pm 29.1 30.3 20.0 58 6.0 ENE 13 26 7 14 1011.1 1011.0 0.0
30/04:30pm 29.3 29.0 19.6 56 6.3 NE 20 32 11 17 1011.1 1011.0 0.0
30/04:00pm 30.3 31.0 20.5 55 6.5 E 17 30 9 16 1011.1 1011.0 0.0
30/03:30pm 29.9 30.1 20.2 56 6.4 ENE 19 28 10 15 1011.2 1011.1 0.0
30/03:00pm 29.8 28.6 21.5 61 5.6 NNE 30 44 16 24 1011.2 1011.1 0.0
30/02:30pm 30.6 30.2 21.7 59 6.0 NNE 26 35 14 19 1011.4 1011.3 0.0
30/02:00pm 30.0 30.6 21.4 60 5.8 NNE 20 35 11 19 1011.7 1011.6 0.0
30/01:30pm 28.9 28.5 20.9 62 5.3 NNE 24 33 13 18 1012.3 1012.2 0.0
30/01:00pm 29.8 30.9 22.0 63 5.3 NE 19 30 10 16 1012.6 1012.5 0.0
30/12:30pm 30.1 30.9 22.5 63 5.2 NE 22 33 12 18 1013.0 1012.9 0.0
30/12:00pm 28.3 27.8 22.1 69 4.2 NNE 28 39 15 21 1013.4 1013.3 0.0
30/11:30am 29.2 29.5 22.9 69 4.3 NNE 26 37 14 20 1014.1 1014.0 0.0
30/11:00am 30.6 30.9 20.5 54 6.7 ENE 19 32 10 17 1014.6 1014.5 0.0
30/10:30am 29.4 30.0 20.3 58 6.0 ENE 17 28 9 15 1015.0 1014.9 0.0
30/10:00am 29.7 30.7 21.1 60 5.7 E 17 26 9 14 1015.3 1015.2 0.0
30/09:30am 28.9 29.8 20.9 62 5.3 E 17 24 9 13 1015.2 1015.1 0.0
30/09:00am 28.5 30.5 21.5 66 4.7 E 13 26 7 14 1015.0 1014.9 0.0
30/08:30am 27.5 29.7 21.8 71 3.8 ENE 13 22 7 12 1015.1 1015.0 0.0
30/08:00am 26.5 29.3 23.0 81 2.4 E 13 17 7 9 1014.9 1014.8 0.0
30/07:30am 25.0 28.8 23.4 91 1.1 E 9 15 5 8 1014.6 1014.5 0.0
30/07:00am 23.4 27.1 23.2 99 0.1 E 9 15 5 8 1014.3 1014.2 0.0
30/06:30am 22.8 26.3 22.8 100 0.0 E 9 15 5 8 1013.9 1013.8 0.0
30/06:00am 22.8 25.8 22.6 99 0.1 E 11 17 6 9 1013.7 1013.6 0.0
30/05:30am 22.8 25.9 22.8 100 0.0 E 11 15 6 8 1013.5 1013.4 0.0
30/05:00am 22.7 26.1 22.7 100 0.0 ENE 9 13 5 7 1013.1 1013.0 0.0
30/04:30am 22.6 25.8 22.4 99 0.1 E 9 13 5 7 1012.9 1012.8 0.0
30/04:00am 22.7 25.9 22.4 98 0.2 E 9 13 5 7 1012.6 1012.5 0.0
30/03:30am 22.7 25.9 22.4 98 0.2 E 9 13 5 7 1012.6 1012.5 0.0
30/03:00am 22.7 25.7 22.0 96 0.5 E 9 13 5 7 1012.6 1012.5 0.0
30/02:30am 22.9 25.8 21.7 93 0.8 ESE 9 13 5 7 1012.6 1012.5 0.0
30/02:00am 23.2 26.0 21.5 90 1.1 ESE 9 13 5 7 1012.5 1012.4 0.0
30/01:30am 23.4 26.3 21.7 90 1.1 E 9 13 5 7 1012.8 1012.7 0.0
30/01:00am 23.5 26.2 21.4 88 1.4 E 9 13 5 7 1013.1 1013.0 0.0
30/12:30am 23.8 26.6 21.5 87 1.5 E 9 13 5 7 1013.3 1013.2 0.0
30/12:00am 23.8 26.6 21.5 87 1.5 E 9 13 5 7 1013.4 1013.3 0.0
 
Date/Time
CST
Temp
°C
App
Temp
°C
Dew
Point
Rel
Hum
%
Delta-T
°C
Wind Press
QNH
hPa
Press
MSL
hPa
Rain
since 9 am
mm
Dir
 
Spd
km/h
Gust
km/h
Spd
kts
Gust
kts
29/11:30pm 24.2 27.0 21.5 85 1.8 E 9 15 5 8 1013.6 1013.5 0.0
29/11:00pm 24.4 27.4 21.9 86 1.7 E 9 15 5 8 1013.8 1013.7 0.0
29/10:30pm 24.6 27.4 22.3 87 1.5 E 11 19 6 10 1013.8 1013.7 0.0
29/10:00pm 24.7 27.3 22.6 88 1.4 E 13 19 7 10 1013.6 1013.5 0.0
29/09:30pm 24.8 27.7 22.5 87 1.5 E 11 17 6 9 1013.3 1013.2 0.0
29/09:00pm 24.9 27.5 22.6 87 1.5 E 13 19 7 10 1012.9 1012.8 0.0
29/08:30pm 25.0 27.6 22.7 87 1.5 ENE 13 19 7 10 1012.7 1012.6 0.0
29/08:00pm 25.2 28.5 22.5 85 1.8 ENE 9 15 5 8 1012.4 1012.3 0.0
29/07:30pm 25.6 28.4 22.3 82 2.2 ENE 11 15 6 8 1012.0 1011.9 0.0
29/07:00pm 26.0 28.7 22.1 79 2.6 ENE 11 20 6 11 1011.6 1011.5 0.0
29/06:30pm 26.5 28.7 21.9 76 3.1 ENE 13 20 7 11 1011.4 1011.3 0.0
29/06:00pm 27.3 29.3 21.6 71 3.8 E 13 19 7 10 1011.1 1011.0 0.0
29/05:30pm 28.1 30.3 21.9 69 4.2 E 13 19 7 10 1010.8 1010.7 0.0
29/05:00pm 29.0 30.2 21.5 64 5.0 E 17 28 9 15 1010.5 1010.4 0.0
29/04:30pm 29.7 31.1 21.1 60 5.7 ENE 15 26 8 14 1010.3 1010.2 0.0
29/04:00pm 30.1 31.4 22.3 63 5.3 NE 19 30 10 16 1010.4 1010.3 0.0
29/03:30pm 29.8 30.5 22.3 64 5.1 NE 22 33 12 18 1010.5 1010.4 0.0
29/03:00pm 31.3 30.9 22.3 58 6.1 NNE 28 41 15 22 1010.5 1010.4 0.0
29/02:30pm 30.6 29.0 21.9 59 5.9 NNE 33 43 18 23 1010.5 1010.4 0.0
29/02:00pm 30.6 30.0 22.7 62 5.4 NNE 30 43 16 23 1010.8 1010.7 0.0
29/01:30pm 30.4 30.7 23.6 67 4.7 NNE 28 43 15 23 1011.2 1011.1 0.0
29/01:00pm 29.8 30.0 22.0 63 5.3 NNE 24 35 13 19 1011.8 1011.7 0.0
29/12:30pm 29.8 29.8 23.0 67 4.7 NNE 28 35 15 19 1012.1 1012.0 0.0
29/12:00pm 30.3 30.3 23.7 68 4.6 N 30 41 16 22 1012.5 1012.4 0.0
29/11:30am 29.9 29.8 23.6 69 4.3 N 30 37 16 20 1013.0 1012.9 0.0
29/11:00am 30.1 31.3 24.5 72 3.9 N 26 35 14 19 1013.3 1013.2 0.0
29/10:30am 30.5 32.5 23.9 68 4.6 NE 20 28 11 15 1013.6 1013.5 0.0
29/10:00am 29.5 31.1 23.2 69 4.3 NE 20 30 11 16 1013.9 1013.8 0.0
29/09:30am 28.7 30.1 23.6 74 3.5 NNE 22 32 12 17 1014.0 1013.9 0.0
29/09:00am 27.6 29.2 23.2 77 3.0 NE 20 30 11 16 1014.2 1014.1 0.0
29/08:30am 26.7 28.4 23.4 82 2.3 NE 20 32 11 17 1014.1 1014.0 0.0
29/08:00am 26.8 28.9 23.7 83 2.1 NE 19 30 10 16 1013.6 1013.5 0.0
29/07:30am 26.0 28.3 23.5 86 1.7 NE 17 26 9 14 1013.1 1013.0 0.0
29/07:00am 25.4 28.3 23.8 91 1.1 NE 15 26 8 14 1012.8 1012.7 0.0
29/06:30am 24.8 27.3 23.2 91 1.1 NE 15 26 8 14 1012.4 1012.3 0.0
29/06:00am 24.5 27.0 23.1 92 0.9 NE 15 22 8 12 1012.2 1012.1 0.0
29/05:30am 24.5 27.2 23.5 94 0.7 NE 15 26 8 14 1011.9 1011.8 0.0
29/05:00am 24.5 26.9 23.6 95 0.6 NE 17 28 9 15 1011.5 1011.4 0.0
29/04:30am 23.9 27.6 23.9 100 0.0 NE 11 20 6 11 1011.3 1011.2 0.0
29/04:00am 23.1 26.7 23.1 100 0.0 ENE 9 17 5 9 1011.0 1010.9 0.0
29/03:30am 22.7 26.1 22.7 100 0.0 ENE 9 11 5 6 1010.9 1010.8 0.0
29/03:00am 22.5 25.8 22.5 100 0.0 NE 9 15 5 8 1010.9 1010.8 0.0
29/02:30am 22.0 25.0 22.0 100 0.0 E 9 13 5 7 1011.1 1011.0 0.0
29/02:00am 22.1 25.6 22.1 100 0.0 E 7 9 4 5 1011.7 1011.6 0.0
29/01:30am 22.2 25.7 22.2 100 0.0 E 7 7 4 4 1012.0 1011.9 0.0
29/01:00am 22.4 25.9 22.2 99 0.1 E 7 7 4 4 1012.3 1012.2 0.0
29/12:30am 23.4 27.6 23.4 100 0.0 E 7 15 4 8 1012.4 1012.3 0.0
29/12:00am 23.3 27.4 23.3 100 0.0 ENE 7 13 4 7 1012.6 1012.5 0.0
 
Date/Time
CST
Temp
°C
App
Temp
°C
Dew
Point
Rel
Hum
%
Delta-T
°C
Wind Press
QNH
hPa
Press
MSL
hPa
Rain
since 9 am
mm
Dir
 
Spd
km/h
Gust
km/h
Spd
kts
Gust
kts
28/11:30pm 23.3 27.0 23.3 100 0.0 ENE 9 11 5 6 1013.1 1013.0 0.0
28/11:00pm 23.3 27.0 23.3 100 0.0 ENE 9 11 5 6 1013.3 1013.2 0.0
28/10:30pm 23.6 27.7 23.3 98 0.2 ENE 7 11 4 6 1013.4 1013.3 0.0
28/10:00pm 23.6 27.4 22.8 95 0.5 ENE 7 9 4 5 1013.1 1013.0 0.0
28/09:30pm 23.8 27.4 22.4 92 0.9 ENE 7 11 4 6 1013.0 1012.9 0.0
28/09:00pm 24.2 27.8 22.1 88 1.4 ENE 6 7 3 4 1012.7 1012.6 0.0
28/08:30pm 24.8 28.3 22.1 85 1.8 ENE 7 9 4 5 1012.3 1012.2 0.0
28/08:00pm 25.4 28.9 22.1 82 2.2 NE 7 11 4 6 1011.9 1011.8 0.0
28/07:30pm 25.5 29.3 22.8 85 1.8 ENE 7 15 4 8 1011.3 1011.2 0.0
28/07:00pm 26.0 29.6 23.1 84 2.0 NE 9 13 5 7 1011.0 1010.9 0.0
28/06:30pm 26.6 30.6 23.7 84 2.0 NE 9 15 5 8 1010.6 1010.5 0.0
28/06:00pm 27.3 30.5 23.7 81 2.5 NNE 13 20 7 11 1010.3 1010.2 0.0
28/05:30pm 28.2 30.0 24.2 79 2.8 N 22 26 12 14 1010.1 1010.0 0.0
28/05:00pm 28.5 30.1 24.5 79 2.8 N 24 28 13 15 1010.1 1010.0 0.0
28/04:30pm 28.7 30.0 24.7 79 2.8 N 26 30 14 16 1010.0 1009.9 0.0
28/04:00pm 29.2 31.5 25.0 78 2.9 N 22 26 12 14 1010.2 1010.1 0.0
28/03:30pm 29.3 30.8 24.4 75 3.4 N 24 28 13 15 1010.3 1010.2 0.0
28/03:00pm 29.8 31.6 24.9 75 3.4 N 24 28 13 15 1010.7 1010.6 0.0
28/02:30pm 29.9 31.0 24.3 72 3.9 N 26 30 14 16 1011.0 1010.9 0.0
28/02:00pm 29.7 30.9 23.9 71 4.0 N 24 28 13 15 1011.4 1011.3 0.0
28/01:30pm 29.3 30.0 23.7 72 3.9 N 26 28 14 15 1011.7 1011.6 0.0
28/01:00pm 29.4 30.5 24.3 74 3.5 N 26 30 14 16 1012.2 1012.1 0.0
28/12:30pm 29.7 30.6 23.9 71 4.0 N 26 28 14 15 1012.9 1012.8 0.0
28/12:00pm 29.4 30.3 23.3 69 4.2 N 24 28 13 15 1013.3 1013.2 0.0
28/11:30am 29.7 31.0 24.1 72 3.9 N 24 28 13 15 1013.8 1013.7 0.0
28/11:00am 28.8 30.8 23.9 75 3.4 N 20 26 11 14 1014.3 1014.2 0.0
28/10:30am 28.5 29.7 23.9 76 3.2 N 24 28 13 15 1014.7 1014.6 0.0
28/10:00am 28.6 30.2 23.9 75 3.2 N 22 28 12 15 1015.0 1014.9 0.0
28/09:30am 28.7 30.9 24.3 77 3.1 NNE 20 26 11 14 1015.1 1015.0 0.0
28/09:00am 27.7 29.6 23.5 78 2.9 NE 19 26 10 14 1014.9 1014.8 0.0
28/08:30am 27.1 30.2 23.6 81 2.4 NE 13 20 7 11 1014.7 1014.6 0.0
28/08:00am 25.9 29.9 23.8 88 1.4 ENE 9 15 5 8 1014.4 1014.3 0.0
28/07:30am 23.1 25.7 21.9 93 0.8 E 11 13 6 7 1014.0 1013.9 0.0
28/07:00am 20.0 21.8 19.5 97 0.3 N 9 11 5 6 1013.6 1013.5 0.0
28/06:30am 20.0 22.3 19.5 97 0.3 SE 6 9 3 5 1013.2 1013.1 0.0
28/06:00am 20.8 21.5 18.9 89 1.2 NNE 13 24 7 13 1012.8 1012.7 0.0
28/05:30am 21.3 22.4 19.6 90 1.1 SE 13 17 7 9 1012.4 1012.3 0.0
28/05:00am 20.2 21.5 20.2 100 0.0 SE 13 15 7 8 1012.2 1012.1 0.0
28/04:30am 20.2 21.5 20.2 100 0.0 ESE 13 15 7 8 1012.1 1012.0 0.0
28/04:00am 20.7 22.3 20.7 100 0.0 ESE 13 15 7 8 1012.0 1011.9 0.0
28/03:30am 20.1 21.8 20.1 100 0.0 ESE 11 13 6 7 1011.9 1011.8 0.0
28/03:00am 20.4 22.1 20.1 98 0.2 ESE 11 11 6 6 1012.0 1011.9 0.0
28/02:30am 21.5 23.3 20.3 93 0.8 ESE 11 15 6 8 1012.1 1012.0 0.0
28/02:00am 22.1 23.8 20.2 89 1.2 ESE 11 13 6 7 1012.3 1012.2 0.0
28/01:30am 22.6 24.3 20.1 86 1.6 ESE 11 13 6 7 1012.4 1012.3 0.0
28/01:00am 23.3 24.8 19.7 80 2.3 ESE 11 17 6 9 1012.8 1012.7 0.0
28/12:30am 23.1 24.3 19.1 78 2.5 ESE 11 15 6 8 1013.1 1013.0 0.0
28/12:00am 23.5 24.6 18.8 75 3.0 E 11 17 6 9 1013.4 1013.3 0.0
 
Date/Time
CST
Temp
°C
App
Temp
°C
Dew
Point
Rel
Hum
%
Delta-T
°C
Wind Press
QNH
hPa
Press
MSL
hPa
Rain
since 9 am
mm
Dir
 
Spd
km/h
Gust
km/h
Spd
kts
Gust
kts
27/11:30pm 24.3 25.1 19.1 73 3.3 ESE 13 17 7 9 1013.7 1013.6 0.0
27/11:00pm 24.2 25.6 19.5 75 3.0 ESE 11 15 6 8 1014.1 1014.0 0.0
27/10:30pm 24.2 26.2 19.9 77 2.8 SE 9 13 5 7 1014.3 1014.2 0.0
27/10:00pm 24.6 26.7 20.1 76 2.9 ESE 9 11 5 6 1014.4 1014.3 0.0
27/09:30pm 25.5 28.0 21.0 76 3.0 ESE 9 15 5 8 1014.0 1013.9 0.0
27/09:00pm 25.4 28.6 22.3 83 2.1 E 9 13 5 7 1013.6 1013.5 0.0
27/08:30pm 25.7 28.7 22.0 80 2.5 ENE 9 13 5 7 1013.3 1013.2 0.0
27/08:00pm 25.8 28.2 20.8 74 3.3 ENE 9 11 5 6 1013.0 1012.9 0.0

Other Formats:

Comma delimited format used in spreadsheet applications
http://www.bom.gov.au/fwo/IDD60801/IDD60801.95146.axf

JavaScript Object Notation format (JSON) in row-major order
http://www.bom.gov.au/fwo/IDD60801/IDD60801.95146.json